createdAt,value
2019-03-20T00:00:30.924Z,7.93
2019-03-20T00:54:26.477Z,5.60
2019-03-20T00:56:55.934Z,6.17
2019-03-20T00:59:25.399Z,8.75
2019-03-20T01:01:54.775Z,7.30
2019-03-20T01:04:24.184Z,8.38
2019-03-20T01:06:53.641Z,6.47
2019-03-20T01:09:23.104Z,6.37
2019-03-20T01:11:53.283Z,6.26
2019-03-20T01:14:23.273Z,6.10
2019-03-20T01:16:53.680Z,5.62
2019-03-20T01:19:23.773Z,6.30
2019-03-20T01:21:54.166Z,5.95
2019-03-20T01:24:24.410Z,5.70
2019-03-20T01:26:54.659Z,6.15
2019-03-20T01:29:24.897Z,5.28
2019-03-20T01:31:55.110Z,5.60
2019-03-20T01:34:25.313Z,5.20
2019-03-20T01:36:55.754Z,5.30
2019-03-20T01:39:25.983Z,5.08
2019-03-20T01:41:56.405Z,5.18
2019-03-20T01:44:26.441Z,4.97
2019-03-20T01:46:55.821Z,4.95
2019-03-20T01:49:25.225Z,5.30
2019-03-20T01:51:54.626Z,5.12
2019-03-20T01:54:24.008Z,5.17
2019-03-20T01:56:53.375Z,5.08
2019-03-20T01:59:23.798Z,4.70
2019-03-20T02:01:53.191Z,5.33
2019-03-20T02:04:22.559Z,5.42
2019-03-20T02:06:52.018Z,5.24
2019-03-20T02:09:21.395Z,5.25
2019-03-20T02:11:50.780Z,5.25
2019-03-20T02:14:20.602Z,5.10
2019-03-20T02:16:49.969Z,4.90
2019-03-20T02:19:19.348Z,5.97
2019-03-20T02:21:49.500Z,5.03
2019-03-20T02:24:19.794Z,5.30
2019-03-20T02:26:49.926Z,5.15
2019-03-20T02:29:20.367Z,5.17
2019-03-20T02:31:50.623Z,4.87
2019-03-20T02:34:21.076Z,5.84
2019-03-20T02:36:51.259Z,5.65
2019-03-20T02:39:21.507Z,5.30
2019-03-20T02:41:52.193Z,4.90
2019-03-20T02:44:22.078Z,4.92
2019-03-20T02:46:52.272Z,4.65
2019-03-20T02:49:22.650Z,4.70
2019-03-20T02:51:52.819Z,5.15
2019-03-20T02:54:22.212Z,4.90
2019-03-20T02:56:51.598Z,4.67
2019-03-20T02:59:21.248Z,4.08
2019-03-20T03:01:50.634Z,3.47
2019-03-20T03:04:20.023Z,3.70
2019-03-20T03:06:49.470Z,3.70
2019-03-20T03:09:18.920Z,4.00
2019-03-20T03:11:48.309Z,3.80
2019-03-20T03:14:17.979Z,3.42
2019-03-20T03:16:47.355Z,3.72
2019-03-20T03:19:16.760Z,3.00
2019-03-20T03:21:46.288Z,3.50
2019-03-20T03:24:15.642Z,3.55
2019-03-20T03:26:45.560Z,3.67
2019-03-20T03:29:14.951Z,2.92
2019-03-20T03:31:44.322Z,3.00
2019-03-20T03:34:13.712Z,3.30
2019-03-20T03:36:43.156Z,2.83
2019-03-20T03:39:12.544Z,4.05
2019-03-20T03:41:41.927Z,3.02
2019-03-20T03:44:11.308Z,3.00
2019-03-20T03:46:40.690Z,2.83
2019-03-20T03:49:10.058Z,3.42
2019-03-20T03:51:39.482Z,2.90
2019-03-20T03:54:08.846Z,2.98
2019-03-20T03:56:38.597Z,2.90
2019-03-20T03:59:08.049Z,3.15
2019-03-20T04:01:37.436Z,3.60
2019-03-20T04:04:06.827Z,2.95
2019-03-20T04:06:37.209Z,3.43
2019-03-20T04:09:07.336Z,2.60
2019-03-20T04:11:36.723Z,2.83
2019-03-20T04:14:06.129Z,3.10
2019-03-20T04:16:35.516Z,2.87
2019-03-20T04:19:05.054Z,2.85
2019-03-20T04:21:35.477Z,2.55
2019-03-20T04:24:05.004Z,2.87
2019-03-20T04:26:34.394Z,2.50
2019-03-20T04:29:04.429Z,3.05
2019-03-20T04:31:33.837Z,2.53
2019-03-20T04:34:03.200Z,2.90
2019-03-20T04:36:32.578Z,2.92
2019-03-20T04:39:01.959Z,3.55
2019-03-20T04:41:31.620Z,3.45
2019-03-20T04:44:01.006Z,3.10
2019-03-20T04:46:30.382Z,2.75
2019-03-20T04:49:00.842Z,2.75
2019-03-20T04:51:30.287Z,3.80
2019-03-20T04:53:59.670Z,4.10
2019-03-20T04:56:29.053Z,3.40
2019-03-20T04:58:58.452Z,2.98
2019-03-20T05:01:27.854Z,3.72
2019-03-20T05:03:57.258Z,3.08
2019-03-20T05:06:26.673Z,3.30
2019-03-20T05:08:56.048Z,3.80
2019-03-20T05:11:25.437Z,3.80
2019-03-20T05:13:54.826Z,3.77
2019-03-20T05:16:24.210Z,3.55
2019-03-20T05:18:53.602Z,3.72
2019-03-20T05:21:22.991Z,3.67
2019-03-20T05:23:52.418Z,3.67
2019-03-20T05:26:21.795Z,3.80
2019-03-20T05:28:51.459Z,3.67
2019-03-20T05:31:20.826Z,3.80
2019-03-20T05:33:50.205Z,3.50
2019-03-20T05:36:19.667Z,4.33
2019-03-20T05:38:49.045Z,3.67
2019-03-20T05:41:18.432Z,3.97
2019-03-20T05:43:47.810Z,3.76
2019-03-20T05:46:17.218Z,4.92
2019-03-20T05:48:46.600Z,3.77
2019-03-20T05:51:15.990Z,4.78
2019-03-20T05:53:45.366Z,3.90
2019-03-20T05:56:14.761Z,4.60
2019-03-20T05:58:44.630Z,4.56
2019-03-20T06:01:14.682Z,4.78
2019-03-20T06:03:45.135Z,4.58
2019-03-20T06:06:15.359Z,4.40
2019-03-20T06:08:45.719Z,5.22
2019-03-20T06:11:15.739Z,5.15
2019-03-20T06:13:45.135Z,5.60
2019-03-20T06:16:14.514Z,5.37
2019-03-20T06:18:43.954Z,5.33
2019-03-20T06:21:13.348Z,5.20
2019-03-20T06:23:42.730Z,5.28
2019-03-20T06:26:12.120Z,5.58
2019-03-20T06:28:41.796Z,6.33
2019-03-20T06:31:11.171Z,5.45
2019-03-20T06:33:40.627Z,5.17
2019-03-20T06:36:10.009Z,5.55
2019-03-20T06:38:39.407Z,4.87
2019-03-20T06:41:08.780Z,4.58
2019-03-20T06:43:38.156Z,4.40
2019-03-20T06:46:07.544Z,4.70
2019-03-20T06:48:36.929Z,5.17
2019-03-20T06:51:06.298Z,4.70
2019-03-20T06:53:36.959Z,4.20
2019-03-20T06:56:06.294Z,4.20
2019-03-20T06:58:35.760Z,3.52
2019-03-20T07:01:14.182Z,3.70
2019-03-20T07:04:10.469Z,3.33
2019-03-20T07:06:54.891Z,4.63
2019-03-20T07:09:44.208Z,3.08
2019-03-20T07:12:13.624Z,3.00
2019-03-20T07:14:43.036Z,2.72
2019-03-20T07:17:12.490Z,2.60
2019-03-20T07:19:41.875Z,2.65
2019-03-20T07:22:11.261Z,2.80
2019-03-20T07:24:40.639Z,2.58
2019-03-20T07:27:10.035Z,2.20
2019-03-20T07:29:39.424Z,2.60
2019-03-20T07:32:08.820Z,2.65
2019-03-20T07:34:38.195Z,2.62
2019-03-20T07:37:07.584Z,2.60
2019-03-20T07:39:36.965Z,2.33
2019-03-20T07:42:06.705Z,2.10
2019-03-20T07:44:36.074Z,2.37
2019-03-20T07:47:06.589Z,2.43
2019-03-20T07:49:36.274Z,2.22
2019-03-20T07:52:05.898Z,2.20
2019-03-20T07:54:36.243Z,2.20
2019-03-20T07:57:05.624Z,2.40
2019-03-20T07:59:35.176Z,2.53
2019-03-20T08:02:04.632Z,2.90
2019-03-20T08:04:34.019Z,2.40
2019-03-20T08:07:03.400Z,2.50
2019-03-20T08:09:32.881Z,2.30
2019-03-20T08:12:02.343Z,1.92
2019-03-20T08:14:31.727Z,2.50
2019-03-20T08:17:01.404Z,1.87
2019-03-20T08:19:31.734Z,2.20
2019-03-20T08:22:02.035Z,2.27
2019-03-20T08:24:32.258Z,2.08
2019-03-20T08:27:01.638Z,2.08
2019-03-20T08:29:31.018Z,2.25
2019-03-20T08:32:00.576Z,1.87
2019-03-20T08:34:29.998Z,2.08
2019-03-20T08:36:59.441Z,2.47
2019-03-20T08:39:28.827Z,3.05
2019-03-20T08:44:46.517Z,2.22
2019-03-20T08:47:17.015Z,2.23
2019-03-20T08:49:46.436Z,2.20
2019-03-20T08:52:15.812Z,1.83
2019-03-20T08:54:45.206Z,1.60
2019-03-20T08:57:14.636Z,1.93
2019-03-20T08:59:44.076Z,1.93
2019-03-20T09:02:13.525Z,2.27
2019-03-20T09:04:42.905Z,2.27
2019-03-20T09:07:12.291Z,1.92
2019-03-20T09:09:41.688Z,2.45
2019-03-20T09:14:59.344Z,2.00
2019-03-20T09:17:28.741Z,2.22
2019-03-20T09:19:58.134Z,1.90
2019-03-20T09:22:28.483Z,2.10
2019-03-20T09:24:57.867Z,1.87
2019-03-20T09:27:27.314Z,2.00
2019-03-20T09:29:56.697Z,2.10
2019-03-20T09:32:26.080Z,1.80
2019-03-20T09:34:55.459Z,1.87
2019-03-20T09:37:24.841Z,1.77
2019-03-20T09:39:54.222Z,1.50
2019-03-20T09:42:23.605Z,1.98
2019-03-20T09:44:53.007Z,1.90
2019-03-20T09:47:22.389Z,2.08
2019-03-20T09:49:51.829Z,2.20
2019-03-20T09:52:22.191Z,2.30
2019-03-20T09:54:51.647Z,2.42
2019-03-20T09:57:21.035Z,1.75
2019-03-20T09:59:50.428Z,1.80
2019-03-20T10:02:20.046Z,2.27
2019-03-20T10:04:49.421Z,1.95
2019-03-20T10:07:18.873Z,2.12
2019-03-20T10:09:48.250Z,2.08
2019-03-20T10:12:17.682Z,1.98
2019-03-20T10:14:47.100Z,2.22
2019-03-20T10:17:17.414Z,1.70
2019-03-20T10:19:46.799Z,1.85
2019-03-20T10:22:16.784Z,1.60
2019-03-20T10:24:46.161Z,2.10
2019-03-20T10:27:15.557Z,1.70
2019-03-20T10:29:44.935Z,1.80
2019-03-20T10:32:14.324Z,1.80
2019-03-20T10:34:43.712Z,1.67
2019-03-20T10:37:13.097Z,2.17
2019-03-20T10:39:43.452Z,1.98
2019-03-20T10:42:12.848Z,1.80
2019-03-20T10:44:42.229Z,1.77
2019-03-20T10:47:11.830Z,1.72
2019-03-20T10:49:41.176Z,1.60
2019-03-20T10:52:10.560Z,1.90
2019-03-20T10:54:39.952Z,1.98
2019-03-20T10:57:09.325Z,1.80
2019-03-20T10:59:39.685Z,1.92
2019-03-20T11:02:09.232Z,2.02
2019-03-20T11:04:38.700Z,1.60
2019-03-20T11:07:08.072Z,1.90
2019-03-20T11:09:37.475Z,2.00
2019-03-20T11:12:06.843Z,1.87
2019-03-20T11:14:36.235Z,2.10
2019-03-20T11:17:05.695Z,1.70
2019-03-20T11:19:35.183Z,1.72
2019-03-20T11:22:04.642Z,2.10
2019-03-20T11:24:34.165Z,1.70
2019-03-20T11:27:03.640Z,2.02
2019-03-20T11:29:33.086Z,2.10
2019-03-20T11:32:02.493Z,1.72
2019-03-20T11:34:31.870Z,1.77
2019-03-20T11:37:01.256Z,1.70
2019-03-20T11:39:30.723Z,1.55
2019-03-20T11:42:00.359Z,1.90
2019-03-20T11:44:29.739Z,1.80
2019-03-20T11:46:59.492Z,1.80
2019-03-20T11:49:28.896Z,1.90
2019-03-20T11:51:58.500Z,1.65
2019-03-20T11:54:27.892Z,1.90
2019-03-20T11:56:57.284Z,1.98
2019-03-20T11:59:26.705Z,1.90
2019-03-20T12:01:56.091Z,1.95
2019-03-20T12:04:26.661Z,1.90
2019-03-20T12:06:56.585Z,2.30
2019-03-20T12:09:25.970Z,2.15
2019-03-20T12:11:55.360Z,1.60
2019-03-20T12:14:24.747Z,1.80
2019-03-20T12:16:54.131Z,2.02
2019-03-20T12:19:23.519Z,2.15
2019-03-20T12:21:54.052Z,2.17
2019-03-20T12:24:23.443Z,2.02
2019-03-20T12:26:52.819Z,2.12
2019-03-20T12:29:22.225Z,2.30
2019-03-20T12:31:52.572Z,1.92
2019-03-20T12:34:22.240Z,1.98
2019-03-20T12:36:51.618Z,1.90
2019-03-20T12:39:20.999Z,1.60
2019-03-20T12:41:50.394Z,1.90
2019-03-20T12:44:19.776Z,1.40
2019-03-20T12:46:49.175Z,1.90
2019-03-20T12:49:18.555Z,2.00
2019-03-20T12:51:47.941Z,1.70
2019-03-20T12:54:17.333Z,1.80
2019-03-20T12:56:46.722Z,1.80
2019-03-20T12:59:17.190Z,1.97
2019-03-20T13:01:46.571Z,2.00
2019-03-20T13:04:15.943Z,1.87
2019-03-20T13:06:45.324Z,2.02
2019-03-20T13:09:14.720Z,1.90
2019-03-20T13:11:44.145Z,1.98
2019-03-20T13:14:13.537Z,2.10
2019-03-20T13:16:43.186Z,1.97
2019-03-20T13:19:12.577Z,2.00
2019-03-20T13:21:43.385Z,1.67
2019-03-20T13:24:13.855Z,2.22
2019-03-20T13:26:43.230Z,2.10
2019-03-20T13:29:12.622Z,1.85
2019-03-20T13:31:42.605Z,2.08
2019-03-20T13:34:12.192Z,1.87
2019-03-20T13:36:41.588Z,1.90
2019-03-20T13:39:11.058Z,2.02
2019-03-20T13:41:40.445Z,1.98
2019-03-20T13:44:09.827Z,1.80
2019-03-20T13:46:39.214Z,1.90
2019-03-20T13:49:08.586Z,1.60
2019-03-20T13:51:37.971Z,2.10
2019-03-20T13:54:07.431Z,1.80
2019-03-20T13:56:36.815Z,2.00
2019-03-20T13:59:06.279Z,1.95
2019-03-20T14:01:35.651Z,1.87
2019-03-20T14:04:05.190Z,1.80
2019-03-20T14:06:34.576Z,2.02
2019-03-20T14:09:05.536Z,1.67
2019-03-20T14:11:35.000Z,1.62
2019-03-20T14:14:04.444Z,1.90
2019-03-20T14:16:33.836Z,2.00
2019-03-20T14:19:03.278Z,1.90
2019-03-20T14:21:32.671Z,2.02
2019-03-20T14:24:03.023Z,1.90
2019-03-20T14:26:32.406Z,1.80
2019-03-20T14:29:03.709Z,1.90
2019-03-20T14:31:33.083Z,1.90
2019-03-20T14:34:02.477Z,2.77
2019-03-20T14:36:31.852Z,2.50
2019-03-20T14:39:01.236Z,2.83
2019-03-20T14:41:32.296Z,2.73
2019-03-20T14:44:01.678Z,2.23
2019-03-20T14:46:31.062Z,2.42
2019-03-20T14:49:00.436Z,2.20
2019-03-20T14:51:29.824Z,2.40
2019-03-20T14:53:59.207Z,2.67
2019-03-20T14:56:28.583Z,2.46
2019-03-20T14:58:57.963Z,2.30
2019-03-20T15:01:28.241Z,2.10
2019-03-20T15:03:57.634Z,2.47
2019-03-20T15:06:27.032Z,2.60
2019-03-20T15:08:56.408Z,2.87
2019-03-20T15:11:26.367Z,3.30
2019-03-20T15:13:56.738Z,3.22
2019-03-20T15:16:26.782Z,2.55
2019-03-20T15:18:56.162Z,2.80
2019-03-20T15:21:25.545Z,3.20
2019-03-20T15:23:54.939Z,2.77
2019-03-20T15:26:24.318Z,2.50
2019-03-20T15:28:53.715Z,2.77
2019-03-20T15:31:23.731Z,2.58
2019-03-20T15:33:53.145Z,2.30
2019-03-20T15:36:22.526Z,3.25
2019-03-20T15:38:51.913Z,2.90
2019-03-20T15:41:21.369Z,2.70
2019-03-20T15:43:50.745Z,2.65
2019-03-20T15:46:20.126Z,3.00
2019-03-20T15:48:49.507Z,2.50
2019-03-20T15:51:18.893Z,2.35
2019-03-20T15:53:48.286Z,3.30
2019-03-20T15:56:17.683Z,3.00
2019-03-20T15:58:47.069Z,2.92
2019-03-20T16:01:16.454Z,2.93
2019-03-20T16:03:47.981Z,3.03
2019-03-20T16:06:17.392Z,3.07
2019-03-20T16:08:46.782Z,3.17
2019-03-20T16:11:17.137Z,3.27
2019-03-20T16:13:46.531Z,2.83
2019-03-20T16:16:16.188Z,2.90
2019-03-20T16:18:45.859Z,2.90
2019-03-20T16:21:15.235Z,3.00
2019-03-20T16:23:44.615Z,2.70
2019-03-20T16:26:14.008Z,2.70
2019-03-20T16:28:43.398Z,2.90
2019-03-20T16:31:12.777Z,2.62
2019-03-20T16:33:42.197Z,3.12
2019-03-20T16:36:11.590Z,3.13
2019-03-20T16:38:40.968Z,2.95
2019-03-20T16:41:16.831Z,2.70
2019-03-20T16:43:41.457Z,3.40
2019-03-20T16:46:11.944Z,2.70
2019-03-20T16:48:41.307Z,2.90
2019-03-20T16:51:10.754Z,2.70
2019-03-20T16:53:40.649Z,2.40
2019-03-20T16:56:11.556Z,3.20
2019-03-20T16:58:41.697Z,2.80
2019-03-20T17:01:11.097Z,2.70
2019-03-20T17:03:40.490Z,2.72
2019-03-20T17:06:09.883Z,3.65
2019-03-20T17:08:40.251Z,3.50
2019-03-20T17:11:09.635Z,3.35
2019-03-20T17:13:39.007Z,2.87
2019-03-20T17:16:09.389Z,3.17
2019-03-20T17:18:38.760Z,2.95
2019-03-20T17:21:08.210Z,4.00
2019-03-20T17:23:37.587Z,5.00
2019-03-20T17:26:07.037Z,4.45
2019-03-20T17:28:36.432Z,4.37
2019-03-20T17:31:05.882Z,3.90
2019-03-20T17:33:36.251Z,3.58
2019-03-20T17:36:05.699Z,3.40
2019-03-20T17:38:35.073Z,3.47
2019-03-20T17:41:04.777Z,4.87
2019-03-20T17:43:34.161Z,6.23
2019-03-20T17:46:03.836Z,8.97
2019-03-20T17:48:33.200Z,14.53
2019-03-20T17:51:02.600Z,14.23
2019-03-20T17:53:31.998Z,13.32
2019-03-20T17:56:01.398Z,11.33
2019-03-20T17:58:30.789Z,12.90
2019-03-20T18:01:00.208Z,12.43
2019-03-20T18:03:30.369Z,12.00
2019-03-20T18:05:59.886Z,10.35
2019-03-20T18:08:29.344Z,9.30
2019-03-20T18:10:58.777Z,8.17
2019-03-20T18:13:28.167Z,7.95
2019-03-20T18:15:57.547Z,8.34
2019-03-20T18:18:26.933Z,8.08
2019-03-20T18:20:56.388Z,9.40
2019-03-20T18:23:25.764Z,8.13
2019-03-20T18:25:55.161Z,8.45
2019-03-20T18:28:25.017Z,10.13
2019-03-20T18:30:54.978Z,10.10
2019-03-20T18:33:24.375Z,8.88
2019-03-20T18:35:53.792Z,7.70
2019-03-20T18:38:23.166Z,8.33
2019-03-20T18:40:52.548Z,8.85
2019-03-20T18:43:21.919Z,9.05
2019-03-20T18:45:52.364Z,8.20
2019-03-20T18:48:21.893Z,7.72
2019-03-20T18:50:51.279Z,7.20
2019-03-20T18:53:20.656Z,7.17
2019-03-20T18:55:50.048Z,7.60
2019-03-20T18:58:19.434Z,7.33
2019-03-20T19:00:48.815Z,6.73
2019-03-20T19:03:35.934Z,6.42
2019-03-20T19:06:14.664Z,7.65
2019-03-20T19:08:44.059Z,6.73
2019-03-20T19:11:13.516Z,6.90
2019-03-20T19:13:42.914Z,7.17
2019-03-20T19:16:12.291Z,7.17
2019-03-20T19:18:41.666Z,7.00
2019-03-20T19:21:11.066Z,6.80
2019-03-20T19:23:40.458Z,7.83
2019-03-20T19:26:09.838Z,8.20
2019-03-20T19:28:39.234Z,8.50
2019-03-20T19:31:09.174Z,9.20
2019-03-20T19:33:39.322Z,8.92
2019-03-20T19:36:09.286Z,7.62
2019-03-20T19:38:39.287Z,7.70
2019-03-20T19:41:09.342Z,7.08
2019-03-20T19:43:39.406Z,7.30
2019-03-20T19:46:09.890Z,8.58
2019-03-20T19:48:39.472Z,9.40
2019-03-20T19:51:09.573Z,9.63
2019-03-20T19:53:39.597Z,9.20
2019-03-20T19:56:09.787Z,9.78
2019-03-20T19:58:39.832Z,8.95
2019-03-20T20:01:10.100Z,7.95
2019-03-20T20:03:39.778Z,7.83
2019-03-20T20:06:11.275Z,7.95
2019-03-20T20:08:40.241Z,7.63
2019-03-20T20:11:09.641Z,7.85
2019-03-20T20:13:39.032Z,7.97
2019-03-20T20:16:08.429Z,7.75
2019-03-20T20:18:37.800Z,6.65
2019-03-20T20:21:07.187Z,7.08
2019-03-20T20:23:36.676Z,6.58
2019-03-20T20:26:06.120Z,6.35
2019-03-20T20:28:35.524Z,6.45
2019-03-20T20:31:04.972Z,6.12
2019-03-20T20:33:34.372Z,6.93
2019-03-20T20:36:03.780Z,7.10
2019-03-20T20:38:33.248Z,6.33
2019-03-20T20:41:02.932Z,7.17
2019-03-20T20:43:32.301Z,6.15
2019-03-20T20:46:01.680Z,8.47
2019-03-20T20:48:31.152Z,9.80
2019-03-20T20:51:00.515Z,8.10
2019-03-20T20:53:29.967Z,7.53
2019-03-20T20:55:59.363Z,7.60
2019-03-20T20:58:29.010Z,7.67
2019-03-20T21:00:58.425Z,7.50
2019-03-20T21:03:27.804Z,8.37
2019-03-20T21:05:57.259Z,9.35
2019-03-20T21:08:26.650Z,9.45
2019-03-20T21:10:56.097Z,9.03
2019-03-20T21:13:25.490Z,7.53
2019-03-20T21:15:54.930Z,8.40
2019-03-20T21:18:43.438Z,7.33
2019-03-20T21:21:13.862Z,7.65
2019-03-20T21:24:19.969Z,7.03
2019-03-20T21:27:26.385Z,7.05
2019-03-20T21:29:58.812Z,7.28
2019-03-20T21:32:51.717Z,7.10
2019-03-20T21:35:56.826Z,7.55
2019-03-20T21:38:25.062Z,6.80
2019-03-20T21:41:19.848Z,7.17
2019-03-20T21:44:26.691Z,7.47
2019-03-20T21:47:18.044Z,7.25
2019-03-20T21:49:47.501Z,6.65
2019-03-20T21:52:16.893Z,5.43
2019-03-20T21:55:08.979Z,6.42
2019-03-20T21:57:47.331Z,6.28
2019-03-20T22:00:47.052Z,6.03
2019-03-20T22:03:17.609Z,6.30
2019-03-20T22:05:59.021Z,6.70
2019-03-20T22:08:28.967Z,7.20
2019-03-20T22:11:01.399Z,7.43
2019-03-20T22:13:51.578Z,8.18
2019-03-20T22:16:35.540Z,8.40
2019-03-20T22:19:19.630Z,8.37
2019-03-20T22:22:17.566Z,8.30
2019-03-20T22:24:55.751Z,7.83
2019-03-20T22:27:47.391Z,6.97
2019-03-20T22:30:16.763Z,6.90
2019-03-20T22:33:04.301Z,6.73
2019-03-20T22:35:42.796Z,7.15
2019-03-20T22:38:15.265Z,7.10
2019-03-20T22:41:08.766Z,7.97
2019-03-20T22:43:47.142Z,7.10
2019-03-20T22:46:49.494Z,6.87
2019-03-20T22:49:33.650Z,6.53
2019-03-20T22:52:18.081Z,7.25
2019-03-20T22:55:06.792Z,6.97
2019-03-20T22:58:00.945Z,6.78
2019-03-20T23:00:32.285Z,7.50
2019-03-20T23:03:05.351Z,7.62
2019-03-20T23:05:34.802Z,7.33
2019-03-20T23:08:14.780Z,7.05
2019-03-20T23:10:47.091Z,6.60
2019-03-20T23:13:19.273Z,7.47
2019-03-20T23:15:47.931Z,7.53
2019-03-20T23:18:17.398Z,7.30
2019-03-20T23:20:46.768Z,6.95
2019-03-20T23:23:16.150Z,6.83
2019-03-20T23:25:45.599Z,7.22
2019-03-20T23:28:15.050Z,6.70
2019-03-20T23:30:44.855Z,6.05
2019-03-20T23:33:14.298Z,6.92
2019-03-20T23:35:43.748Z,6.90
2019-03-20T23:38:13.987Z,6.75
2019-03-20T23:40:43.752Z,6.08
2019-03-20T23:43:13.953Z,7.10
2019-03-20T23:45:44.438Z,6.64
2019-03-20T23:48:37.668Z,6.97
2019-03-20T23:51:19.746Z,7.00
2019-03-20T23:53:51.087Z,6.42
2019-03-20T23:56:20.708Z,6.97
2019-03-20T23:58:50.107Z,6.28
